Time;durP1;ratioP1;P1;durP2;ratioP2;P2;SDS_P1;SDS_P2;PMS_P1;PMS_P2;Temp;Humidity;BMP_temperature;BMP_pressure;BME280_temperature;BME280_humidity;BME280_pressure;Samples;Min_cycle;Max_cycle;Signal;HPM_P1;HPM_P2
2021/09/22 00:00:38;;;;;;;8.50;5.97;;;;;;;18.36;58.68;100392.41;5031712;28;20050;-76
2021/09/22 00:03:04;;;;;;;9.38;6.88;;;;;;;18.33;60.21;100393.66;5024488;28;20026;-76
2021/09/22 00:05:30;;;;;;;11.07;6.88;;;;;;;18.21;59.28;100395.22;5012527;28;20018;-76
2021/09/22 00:07:55;;;;;;;10.05;6.70;;;;;;;18.34;59.38;100389.13;5024777;28;20040;-77
2021/09/22 00:10:21;;;;;;;9.07;6.63;;;;;;;18.37;59.54;100394.06;5023637;28;20030;-77
2021/09/22 00:12:48;;;;;;;10.25;6.90;;;;;;;18.25;60.36;100376.88;5033496;28;20026;-76
2021/09/22 00:15:16;;;;;;;12.00;8.05;;;;;;;17.92;60.92;100384.69;5015374;28;20029;-77
2021/09/22 00:17:42;;;;;;;12.02;7.97;;;;;;;18.07;61.16;100393.47;5031593;28;20101;-76
2021/09/22 00:20:09;;;;;;;14.05;8.00;;;;;;;17.89;60.53;100393.94;5031722;28;20352;-76
2021/09/22 00:22:34;;;;;;;13.40;8.95;;;;;;;17.77;61.90;100396.31;5032371;28;20301;-77
2021/09/22 00:25:00;;;;;;;14.13;8.93;;;;;;;17.84;61.89;100393.69;5038888;28;20421;-76
2021/09/22 00:27:25;;;;;;;15.98;9.40;;;;;;;17.88;61.47;100388.78;5032957;28;20242;-76
2021/09/22 00:29:51;;;;;;;16.80;10.02;;;;;;;17.82;61.93;100388.53;5025990;28;20079;-77
2021/09/22 00:32:16;;;;;;;15.88;9.82;;;;;;;17.78;62.45;100373.03;5028872;28;20045;-77
2021/09/22 00:34:42;;;;;;;12.90;9.20;;;;;;;17.72;61.92;100384.53;5030417;28;20092;-77
2021/09/22 00:37:07;;;;;;;16.25;10.30;;;;;;;17.68;63.05;100385.91;5033132;28;20064;-76
2021/09/22 00:39:36;;;;;;;16.30;10.20;;;;;;;17.41;63.67;100369.56;5032611;28;20036;-77
2021/09/22 00:42:05;;;;;;;16.63;10.43;;;;;;;17.51;64.10;100370.06;5032576;28;20048;-76
2021/09/22 00:44:31;;;;;;;16.40;10.20;;;;;;;17.50;64.49;100363.06;5038413;28;20041;-76
2021/09/22 00:46:57;;;;;;;16.70;10.23;;;;;;;17.36;64.75;100361.28;5027688;28;20132;-77
2021/09/22 00:49:23;;;;;;;18.88;10.57;;;;;;;17.40;64.64;100361.72;5029052;28;20104;-76
2021/09/22 00:51:48;;;;;;;19.17;10.68;;;;;;;17.26;65.11;100334.00;5028873;28;20042;-76
2021/09/22 00:54:14;;;;;;;16.40;10.75;;;;;;;17.27;65.10;100340.19;5033944;28;20037;-77
2021/09/22 00:56:40;;;;;;;15.30;10.60;;;;;;;17.04;65.29;100322.44;5033181;28;20036;-76
2021/09/22 00:59:05;;;;;;;17.35;10.70;;;;;;;17.15;65.95;100348.72;5033701;28;20038;-76
2021/09/22 01:01:32;;;;;;;19.10;11.23;;;;;;;16.83;66.63;100319.75;5034576;28;20314;-76
2021/09/22 01:04:00;;;;;;;19.83;11.45;;;;;;;16.95;66.57;100336.13;5033708;28;20029;-77
2021/09/22 01:06:26;;;;;;;15.77;10.38;;;;;;;16.99;66.77;100342.75;5034442;28;20226;-77
2021/09/22 01:08:52;;;;;;;12.60;9.05;;;;;;;16.94;67.60;100334.47;5031099;28;20111;-76
2021/09/22 01:11:19;;;;;;;14.10;9.20;;;;;;;16.85;68.24;100329.25;5034187;28;20021;-76
2021/09/22 01:13:44;;;;;;;12.90;8.75;;;;;;;16.65;69.69;100335.34;5032313;28;20029;-76
2021/09/22 01:16:10;;;;;;;12.65;7.72;;;;;;;16.69;70.06;100337.50;5022693;28;20072;-76
2021/09/22 01:18:35;;;;;;;12.77;8.48;;;;;;;16.46;71.56;100342.88;5027367;28;20041;-76
2021/09/22 01:21:01;;;;;;;11.75;8.48;;;;;;;16.47;71.99;100343.72;5028695;28;20029;-77
2021/09/22 01:23:28;;;;;;;11.07;8.15;;;;;;;16.25;73.07;100342.81;5026879;28;20219;-77
2021/09/22 01:25:55;;;;;;;11.88;7.90;;;;;;;16.28;73.45;100339.75;5020051;28;20067;-77
2021/09/22 01:28:24;;;;;;;13.82;7.47;;;;;;;16.09;73.25;100292.22;5039714;28;20049;-77
2021/09/22 01:30:50;;;;;;;13.73;7.80;;;;;;;16.24;74.17;100330.47;5031661;28;20052;-76
2021/09/22 01:33:17;;;;;;;14.15;7.97;;;;;;;16.08;74.18;100320.78;5036102;28;20369;-76
2021/09/22 01:35:46;;;;;;;20.17;8.80;;;;;;;16.12;73.89;100332.75;5034646;28;20049;-76
2021/09/22 01:38:15;;;;;;;14.70;8.60;;;;;;;16.23;73.65;100336.81;5033158;28;20060;-76
2021/09/22 01:40:51;;;;;;;15.75;8.43;;;;;;;16.18;74.24;100329.34;5012215;28;20272;-76
2021/09/22 01:43:17;;;;;;;11.00;7.95;;;;;;;16.15;74.25;100321.72;5028146;28;20077;-76
2021/09/22 01:45:42;;;;;;;12.00;7.82;;;;;;;16.09;74.63;100324.28;5031937;28;20033;-76
2021/09/22 01:48:08;;;;;;;17.70;8.32;;;;;;;16.09;74.58;100316.28;5033205;28;20034;-77
2021/09/22 01:50:34;;;;;;;10.82;7.75;;;;;;;16.21;74.11;100334.34;5035354;28;20045;-76
2021/09/22 01:52:59;;;;;;;12.73;7.72;;;;;;;16.24;73.86;100327.78;5029474;28;20045;-76
2021/09/22 01:55:25;;;;;;;11.02;7.82;;;;;;;16.24;73.67;100325.13;5024152;28;20076;-76
2021/09/22 01:57:50;;;;;;;11.02;8.13;;;;;;;16.31;73.04;100323.38;5027038;28;20181;-76
2021/09/22 02:00:16;;;;;;;14.85;9.00;;;;;;;16.04;73.41;100310.66;5022313;28;20025;-76
2021/09/22 02:02:42;;;;;;;14.18;9.98;;;;;;;16.21;73.17;100325.50;5024821;28;20100;-76
2021/09/22 02:05:08;;;;;;;16.92;9.57;;;;;;;16.33;72.34;100321.34;5027246;28;20249;-76
2021/09/22 02:07:34;;;;;;;19.30;10.27;;;;;;;16.33;72.36;100323.19;5033944;28;20079;-76
2021/09/22 02:10:00;;;;;;;13.43;9.88;;;;;;;16.40;71.61;100308.88;5027713;28;20029;-76
2021/09/22 02:12:26;;;;;;;16.20;9.73;;;;;;;16.42;71.39;100316.72;5030908;28;20034;-77
2021/09/22 02:14:52;;;;;;;14.95;10.25;;;;;;;16.51;71.37;100318.28;5026613;28;20032;-76
2021/09/22 02:17:18;;;;;;;16.55;10.80;;;;;;;16.48;70.58;100322.16;5021570;28;20037;-76
2021/09/22 02:19:43;;;;;;;17.33;10.73;;;;;;;16.36;70.62;100306.78;5022242;28;20034;-77
2021/09/22 02:22:09;;;;;;;19.05;11.32;;;;;;;16.49;70.42;100322.97;5037370;28;20335;-77
2021/09/22 02:24:37;;;;;;;16.08;10.18;;;;;;;16.68;68.83;100324.31;5028985;28;20045;-76
2021/09/22 02:27:03;;;;;;;16.27;10.63;;;;;;;16.74;68.06;100323.56;5033373;28;20059;-76
2021/09/22 02:29:29;;;;;;;19.50;11.55;;;;;;;16.67;67.50;100326.16;5025134;28;20105;-77
2021/09/22 02:31:55;;;;;;;18.67;12.25;;;;;;;16.58;66.82;100325.38;5028965;28;20030;-76
2021/09/22 02:34:20;;;;;;;19.63;11.73;;;;;;;16.65;66.56;100319.28;5025165;28;20028;-76
2021/09/22 02:36:46;;;;;;;18.70;11.90;;;;;;;16.53;66.23;100329.59;5039486;28;20072;-76
2021/09/22 02:39:11;;;;;;;18.67;12.00;;;;;;;16.49;66.27;100326.47;5041306;28;20065;-76
2021/09/22 02:41:37;;;;;;;21.05;12.25;;;;;;;16.27;66.70;100335.44;5038984;28;20033;-76
2021/09/22 02:44:03;;;;;;;18.63;12.30;;;;;;;16.33;66.35;100324.00;5025856;28;20216;-77
2021/09/22 02:46:29;;;;;;;18.13;12.35;;;;;;;16.48;65.72;100340.88;5026901;28;20049;-77
2021/09/22 02:48:55;;;;;;;18.48;12.75;;;;;;;16.41;65.88;100333.78;5020895;28;20042;-77
2021/09/22 02:51:20;;;;;;;21.52;12.45;;;;;;;16.29;66.11;100328.91;5008066;28;20041;-77
2021/09/22 02:53:47;;;;;;;19.13;11.68;;;;;;;16.45;66.09;100343.91;5028077;28;20045;-77
2021/09/22 02:56:12;;;;;;;18.55;12.90;;;;;;;16.49;64.67;100331.81;5030122;28;20315;-77
2021/09/22 02:58:38;;;;;;;21.10;12.25;;;;;;;16.52;65.01;100336.81;5031170;28;20042;-76
2021/09/22 03:01:04;;;;;;;20.30;12.70;;;;;;;16.60;64.07;100338.53;5031043;28;20037;-76
2021/09/22 03:03:31;;;;;;;19.85;12.93;;;;;;;16.53;64.41;100341.13;5034889;28;20030;-77
2021/09/22 03:05:57;;;;;;;21.33;13.10;;;;;;;16.56;63.68;100326.56;5031684;28;20041;-76
2021/09/22 03:08:22;;;;;;;20.23;13.18;;;;;;;16.63;63.38;100332.81;5037280;28;20045;-76
2021/09/22 03:10:48;;;;;;;25.70;12.95;;;;;;;16.55;63.50;100339.09;5030197;28;20037;-77
2021/09/22 03:13:13;;;;;;;18.63;13.57;;;;;;;16.59;63.73;100331.53;5018281;28;20033;-77
2021/09/22 03:15:39;;;;;;;21.17;13.60;;;;;;;16.58;63.90;100328.03;5010532;28;20064;-77
2021/09/22 03:18:04;;;;;;;19.42;13.38;;;;;;;16.54;63.94;100321.41;5035659;28;20095;-77
2021/09/22 03:20:30;;;;;;;19.38;12.77;;;;;;;16.51;63.50;100321.78;5034521;28;20307;-77
2021/09/22 03:22:55;;;;;;;19.52;12.98;;;;;;;16.56;63.36;100327.41;5029676;28;20045;-77
2021/09/22 03:25:21;;;;;;;24.23;14.05;;;;;;;16.40;64.07;100324.94;5023997;28;20045;-76
2021/09/22 03:27:46;;;;;;;20.08;12.70;;;;;;;16.61;63.31;100321.50;5026574;28;20100;-77
2021/09/22 03:30:12;;;;;;;21.05;14.23;;;;;;;16.60;62.98;100317.97;5037571;28;20057;-76
2021/09/22 03:32:39;;;;;;;19.50;12.52;;;;;;;16.66;62.58;100326.34;5022869;28;20026;-77
2021/09/22 03:35:05;;;;;;;21.60;13.18;;;;;;;16.59;62.61;100328.88;5024832;28;20319;-77
2021/09/22 03:37:30;;;;;;;20.60;12.82;;;;;;;16.57;62.36;100321.03;5029779;28;20334;-77
2021/09/22 03:39:56;;;;;;;22.10;13.98;;;;;;;16.51;62.32;100312.94;5032832;28;20033;-76
2021/09/22 03:42:21;;;;;;;22.02;13.57;;;;;;;16.45;62.79;100319.84;5033941;28;20049;-76
2021/09/22 03:44:47;;;;;;;23.17;13.70;;;;;;;16.50;62.41;100317.44;5031027;28;20117;-77
2021/09/22 03:47:12;;;;;;;20.20;12.55;;;;;;;16.49;62.38;100317.63;5014460;28;20312;-76
2021/09/22 03:49:38;;;;;;;21.27;12.70;;;;;;;16.52;62.33;100315.41;5026838;28;20045;-77
2021/09/22 03:52:04;;;;;;;19.45;12.85;;;;;;;16.61;61.10;100325.00;5030519;28;20044;-77
2021/09/22 03:54:29;;;;;;;20.67;13.52;;;;;;;16.50;61.39;100308.59;5030045;28;20026;-77
2021/09/22 03:56:55;;;;;;;21.63;12.23;;;;;;;16.42;61.54;100303.34;5033003;28;20056;-76
2021/09/22 03:59:20;;;;;;;20.70;13.75;;;;;;;16.42;62.14;100314.03;5032341;28;20044;-76
2021/09/22 04:01:46;;;;;;;22.77;12.88;;;;;;;16.45;61.46;100313.69;5033777;28;20037;-76
2021/09/22 04:04:11;;;;;;;17.90;12.07;;;;;;;16.45;61.22;100316.34;5039006;28;20041;-77
2021/09/22 04:06:37;;;;;;;16.83;12.55;;;;;;;16.61;60.60;100325.00;5035511;28;20037;-77
2021/09/22 04:09:03;;;;;;;17.85;12.07;;;;;;;16.42;60.89;100292.66;5032727;28;20068;-76
2021/09/22 04:11:29;;;;;;;19.85;12.75;;;;;;;16.51;60.97;100320.94;5032597;28;20049;-77
2021/09/22 04:13:55;;;;;;;18.27;12.80;;;;;;;16.40;60.82;100302.72;5020089;28;20067;-77
2021/09/22 04:16:20;;;;;;;17.75;11.82;;;;;;;16.37;61.21;100317.28;5036946;28;20049;-76
2021/09/22 04:18:46;;;;;;;17.48;12.55;;;;;;;16.47;60.55;100303.63;5034123;28;20022;-77
2021/09/22 04:21:11;;;;;;;18.05;12.20;;;;;;;16.57;60.49;100309.50;5034727;28;20033;-76
2021/09/22 04:23:37;;;;;;;21.27;12.63;;;;;;;16.55;60.79;100307.03;5034083;28;20045;-77
2021/09/22 04:26:02;;;;;;;22.48;13.00;;;;;;;16.75;60.21;100303.81;5032373;28;20044;-77
2021/09/22 04:28:28;;;;;;;20.85;12.63;;;;;;;16.71;59.84;100295.34;5013508;28;20029;-76
2021/09/22 04:30:53;;;;;;;17.25;12.25;;;;;;;16.87;59.17;100300.47;5035991;28;20136;-76
2021/09/22 04:33:19;;;;;;;19.33;12.70;;;;;;;16.84;59.34;100308.03;5014375;28;20026;-77
2021/09/22 04:35:44;;;;;;;19.52;12.98;;;;;;;16.78;58.99;100303.44;5015052;28;20021;-77
2021/09/22 04:38:10;;;;;;;22.02;13.98;;;;;;;16.75;59.38;100303.81;5034137;28;20042;-76
2021/09/22 04:40:35;;;;;;;21.05;13.20;;;;;;;16.72;59.27;100307.69;5036379;28;20045;-77
2021/09/22 04:43:01;;;;;;;19.77;13.13;;;;;;;16.61;60.06;100310.78;5026413;28;20034;-77
2021/09/22 04:45:28;;;;;;;21.05;12.02;;;;;;;16.69;59.73;100304.56;5033938;28;20029;-75
2021/09/22 04:47:55;;;;;;;20.42;12.60;;;;;;;16.86;59.33;100308.69;5035237;28;20033;-76
2021/09/22 04:50:22;;;;;;;27.30;13.18;;;;;;;16.94;58.73;100305.06;5032191;28;20049;-76
2021/09/22 04:52:48;;;;;;;20.38;12.98;;;;;;;16.90;59.00;100301.94;5030379;28;20041;-76
2021/09/22 04:55:13;;;;;;;21.20;13.43;;;;;;;16.82;58.89;100302.03;5032888;28;20076;-76
2021/09/22 04:57:40;;;;;;;23.00;14.43;;;;;;;16.65;58.94;100287.22;5036318;28;20200;-76
2021/09/22 05:00:07;;;;;;;21.20;13.77;;;;;;;16.71;58.65;100313.22;5034461;28;20026;-76
2021/09/22 05:02:33;;;;;;;21.05;14.48;;;;;;;16.74;58.91;100303.00;5010165;28;20129;-76
2021/09/22 05:04:58;;;;;;;19.88;13.27;;;;;;;16.73;59.11;100306.69;5023889;28;20243;-76
2021/09/22 05:07:24;;;;;;;18.55;12.93;;;;;;;16.76;59.16;100303.63;5023104;28;20030;-76
2021/09/22 05:09:49;;;;;;;24.15;13.85;;;;;;;16.83;59.08;100295.69;5028453;28;20061;-76
2021/09/22 05:12:15;;;;;;;21.23;13.98;;;;;;;16.78;58.91;100284.72;5032207;28;20021;-76
2021/09/22 05:14:41;;;;;;;22.92;13.80;;;;;;;16.96;58.20;100290.47;5029831;28;20024;-77
2021/09/22 05:17:06;;;;;;;26.50;13.45;;;;;;;16.98;57.34;100300.97;5031359;28;20319;-77
2021/09/22 05:19:32;;;;;;;18.42;12.60;;;;;;;16.76;57.67;100279.56;5029572;28;20037;-76
2021/09/22 05:21:57;;;;;;;21.88;13.50;;;;;;;16.88;57.94;100294.09;5036350;28;20026;-77
2021/09/22 05:24:23;;;;;;;21.55;13.75;;;;;;;16.92;57.54;100291.88;5021918;28;20025;-76
2021/09/22 05:26:49;;;;;;;22.92;13.15;;;;;;;16.99;56.89;100298.13;5038412;28;20029;-77
2021/09/22 05:29:15;;;;;;;20.45;13.32;;;;;;;16.99;57.41;100290.09;5042181;28;20446;-77
2021/09/22 05:31:40;;;;;;;20.77;13.35;;;;;;;16.95;56.79;100288.81;5043303;28;20021;-76
2021/09/22 05:34:06;;;;;;;20.05;14.32;;;;;;;16.99;57.43;100283.91;5043738;28;20320;-77
2021/09/22 05:36:31;;;;;;;25.08;13.60;;;;;;;17.17;56.35;100279.78;5043178;28;20032;-77
2021/09/22 05:38:57;;;;;;;19.70;13.70;;;;;;;17.15;56.36;100271.09;5043400;28;20327;-76
2021/09/22 05:41:22;;;;;;;24.83;12.93;;;;;;;17.19;56.19;100276.91;5043080;28;20036;-77
2021/09/22 05:43:48;;;;;;;19.60;12.90;;;;;;;17.28;55.07;100257.00;5043639;28;20052;-76
2021/09/22 05:46:14;;;;;;;19.35;13.00;;;;;;;17.54;54.90;100261.75;5041688;28;20330;-77
2021/09/22 05:48:39;;;;;;;16.83;11.95;;;;;;;17.64;54.40;100278.31;5043219;28;20053;-77
2021/09/22 05:51:05;;;;;;;22.58;12.85;;;;;;;17.53;54.34;100252.88;5042655;28;20085;-76
2021/09/22 05:53:31;;;;;;;16.20;11.77;;;;;;;17.64;53.53;100266.75;5025296;28;20410;-76
2021/09/22 05:55:56;;;;;;;17.80;11.82;;;;;;;17.50;53.76;100250.59;5042523;28;20017;-76
2021/09/22 05:58:22;;;;;;;14.57;11.27;;;;;;;17.41;54.19;100267.00;5025265;28;20041;-77
2021/09/22 06:00:48;;;;;;;18.23;11.80;;;;;;;17.14;54.12;100250.72;5043280;28;20250;-76
2021/09/22 06:03:13;;;;;;;22.50;12.80;;;;;;;17.40;53.94;100278.72;5042969;28;20048;-77
2021/09/22 06:05:39;;;;;;;21.73;11.07;;;;;;;17.24;52.79;100275.31;5042555;28;20021;-76
2021/09/22 06:08:08;;;;;;;20.80;12.38;;;;;;;17.22;53.78;100290.72;5042727;28;20049;-77
2021/09/22 06:10:35;;;;;;;14.20;10.68;;;;;;;17.18;53.95;100280.59;5042565;28;20090;-76
2021/09/22 06:13:01;;;;;;;21.38;13.20;;;;;;;17.13;53.71;100275.00;5034711;28;20048;-76
2021/09/22 06:15:27;;;;;;;18.38;11.73;;;;;;;17.33;53.64;100299.25;5023343;28;20099;-76
2021/09/22 06:17:53;;;;;;;16.73;11.32;;;;;;;17.35;53.53;100283.84;5036993;28;20037;-76
2021/09/22 06:20:18;;;;;;;19.65;10.63;;;;;;;17.28;52.66;100275.75;5028503;28;20068;-76
2021/09/22 06:22:44;;;;;;;15.80;10.95;;;;;;;17.35;52.20;100278.47;5028230;28;20030;-76
2021/09/22 06:25:11;;;;;;;18.20;11.57;;;;;;;17.33;52.58;100278.69;5031970;28;20037;-77
2021/09/22 06:27:36;;;;;;;15.73;10.43;;;;;;;17.23;52.36;100262.13;5017739;28;20034;-77
2021/09/22 06:30:03;;;;;;;17.55;10.35;;;;;;;17.25;51.39;100286.84;5029860;28;20377;-76
2021/09/22 06:32:29;;;;;;;16.58;11.45;;;;;;;17.40;51.81;100289.44;5028740;28;20029;-76
2021/09/22 06:34:54;;;;;;;15.93;12.35;;;;;;;17.51;50.61;100270.16;5023319;28;20124;-76
2021/09/22 06:37:22;;;;;;;16.40;10.82;;;;;;;17.52;50.90;100295.91;5228337;22;20399;-74
2021/09/22 06:39:48;;;;;;;17.80;11.48;;;;;;;17.46;51.09;100275.28;5041808;28;20041;-74
2021/09/22 06:42:13;;;;;;;15.20;9.60;;;;;;;17.55;51.44;100291.00;5041619;28;20045;-74
2021/09/22 06:44:39;;;;;;;16.90;10.43;;;;;;;17.77;50.98;100272.28;5041841;28;20033;-74
2021/09/22 06:47:04;;;;;;;16.23;10.57;;;;;;;17.86;50.75;100274.59;5041929;28;20273;-74
2021/09/22 06:49:30;;;;;;;19.00;9.98;;;;;;;17.94;50.81;100275.47;5042104;28;20068;-72
2021/09/22 06:51:56;;;;;;;15.98;9.40;;;;;;;17.82;50.44;100273.34;5041898;28;20101;-74
2021/09/22 06:54:21;;;;;;;16.15;9.20;;;;;;;17.76;49.37;100276.81;5041781;28;20427;-74
2021/09/22 06:56:47;;;;;;;16.05;9.40;;;;;;;17.70;50.17;100274.09;5042029;28;20041;-74
2021/09/22 06:59:13;;;;;;;14.75;9.88;;;;;;;17.57;49.61;100261.34;5024019;28;20473;-74
2021/09/22 07:01:40;;;;;;;13.50;9.02;;;;;;;17.47;49.06;100275.09;5041729;28;20369;-74
2021/09/22 07:04:06;;;;;;;10.65;7.70;;;;;;;17.23;48.85;100273.66;5041684;28;20104;-74
2021/09/22 07:06:32;;;;;;;11.20;8.02;;;;;;;17.13;48.54;100270.47;5023640;28;20302;-74
2021/09/22 07:08:57;;;;;;;15.20;7.35;;;;;;;17.28;48.33;100281.09;5041206;28;20147;-74
2021/09/22 07:11:23;;;;;;;14.50;7.82;;;;;;;17.27;48.12;100283.97;5041421;28;20029;-74
2021/09/22 07:13:48;;;;;;;13.57;7.88;;;;;;;17.26;48.51;100279.63;5024118;28;20029;-74
2021/09/22 07:16:16;;;;;;;10.25;7.65;;;;;;;17.26;48.09;100283.16;5054319;28;20036;-74
2021/09/22 07:18:42;;;;;;;10.70;7.10;;;;;;;17.29;47.93;100284.59;5043610;28;20033;-74
2021/09/22 07:21:07;;;;;;;10.80;7.20;;;;;;;17.33;48.25;100284.03;5037744;28;20048;-74
2021/09/22 07:23:33;;;;;;;14.88;7.93;;;;;;;17.34;47.90;100287.53;5044773;28;20040;-74
2021/09/22 07:25:58;;;;;;;11.35;8.10;;;;;;;17.40;48.79;100284.09;5052028;28;20030;-74
2021/09/22 07:28:24;;;;;;;13.93;9.10;;;;;;;17.49;48.11;100280.25;5041335;28;20033;-73
2021/09/22 07:30:50;;;;;;;10.13;7.97;;;;;;;17.61;47.21;100265.31;5041208;28;20033;-74
2021/09/22 07:33:15;;;;;;;12.25;8.32;;;;;;;17.73;46.14;100261.13;5051037;28;20303;-73
2021/09/22 07:35:41;;;;;;;12.45;7.70;;;;;;;17.77;46.17;100254.34;5045968;28;20094;-73
2021/09/22 07:38:07;;;;;;;11.57;8.20;;;;;;;17.76;44.85;100260.72;5042397;28;20098;-74
2021/09/22 07:40:33;;;;;;;13.95;7.65;;;;;;;17.67;44.73;100251.16;5047907;28;20033;-73
2021/09/22 07:42:58;;;;;;;10.15;7.57;;;;;;;17.74;44.51;100265.47;5041408;28;20041;-74
2021/09/22 07:45:25;;;;;;;15.00;7.75;;;;;;;17.70;44.66;100260.69;5046063;28;20250;-74
2021/09/22 07:47:51;;;;;;;13.85;7.78;;;;;;;17.60;45.34;100231.50;5008760;28;20021;-74
2021/09/22 07:50:16;;;;;;;14.48;8.05;;;;;;;17.68;44.86;100257.34;5053250;28;20032;-74
2021/09/22 07:52:42;;;;;;;12.80;8.10;;;;;;;17.77;44.97;100262.38;5041123;28;20270;-74
2021/09/22 07:55:09;;;;;;;11.38;7.97;;;;;;;17.81;45.11;100258.28;5041260;28;20037;-73
2021/09/22 07:57:35;;;;;;;15.00;7.35;;;;;;;17.88;44.26;100246.78;5041464;28;20052;-74
2021/09/22 08:00:01;;;;;;;15.00;7.40;;;;;;;17.82;43.42;100254.59;5041268;28;20222;-73
2021/09/22 08:02:26;;;;;;;11.75;8.25;;;;;;;17.81;42.99;100241.41;5041105;28;20082;-74
2021/09/22 08:04:52;;;;;;;13.02;7.80;;;;;;;17.70;43.52;100234.75;5041265;28;20025;-74
2021/09/22 08:07:18;;;;;;;13.23;7.80;;;;;;;17.80;43.24;100235.22;5040665;28;20381;-74
2021/09/22 08:09:44;;;;;;;11.50;7.88;;;;;;;18.09;42.56;100227.94;5041240;28;20033;-73
2021/09/22 08:12:10;;;;;;;15.82;7.20;;;;;;;18.22;41.36;100216.44;5040874;28;20044;-74
2021/09/22 08:14:36;;;;;;;10.25;7.15;;;;;;;18.25;41.77;100221.41;5041190;28;20246;-74
2021/09/22 08:17:03;;;;;;;11.40;7.57;;;;;;;18.59;42.22;100223.19;5023280;28;20037;-73
2021/09/22 08:19:28;;;;;;;12.35;7.45;;;;;;;18.76;41.31;100213.78;5041149;28;20345;-74
2021/09/22 08:21:55;;;;;;;11.15;7.55;;;;;;;18.60;40.85;100206.06;5044078;28;20045;-74
2021/09/22 08:24:20;;;;;;;13.35;7.32;;;;;;;18.40;40.77;100204.16;5044519;28;20052;-73
2021/09/22 08:26:46;;;;;;;14.50;7.55;;;;;;;18.25;41.29;100200.78;5044582;28;20037;-73
2021/09/22 08:29:12;;;;;;;12.15;7.18;;;;;;;18.20;41.25;100200.56;5026750;28;20021;-73
2021/09/22 08:31:38;;;;;;;8.80;6.72;;;;;;;18.19;41.35;100202.41;5043613;28;20041;-74
2021/09/22 08:34:03;;;;;;;12.07;7.45;;;;;;;18.31;41.86;100191.94;5044245;28;20039;-74
2021/09/22 08:36:29;;;;;;;12.82;7.28;;;;;;;18.41;41.36;100191.56;5043627;28;20045;-74
2021/09/22 08:38:54;;;;;;;9.27;6.60;;;;;;;18.23;40.47;100184.09;5044075;28;20025;-74
2021/09/22 08:41:20;;;;;;;10.05;6.53;;;;;;;18.06;40.78;100182.78;5044140;28;20033;-74
2021/09/22 08:43:46;;;;;;;13.52;6.28;;;;;;;18.07;40.40;100179.06;5044257;28;20047;-74
2021/09/22 08:46:12;;;;;;;10.63;6.95;;;;;;;18.04;40.44;100172.25;5043568;28;20215;-75
2021/09/22 08:48:40;;;;;;;8.82;6.10;;;;;;;18.03;40.92;100170.63;5044032;28;20029;-73
2021/09/22 08:51:06;;;;;;;8.27;6.35;;;;;;;17.91;40.34;100137.38;5044039;28;20030;-75
2021/09/22 08:53:31;;;;;;;14.18;7.13;;;;;;;18.00;41.00;100160.28;5043509;28;20033;-75
2021/09/22 08:55:57;;;;;;;9.35;7.20;;;;;;;18.15;41.09;100162.81;5043937;28;20033;-74
2021/09/22 08:58:22;;;;;;;13.65;6.63;;;;;;;18.11;40.71;100153.53;5029412;28;20025;-74
2021/09/22 09:00:48;;;;;;;12.07;7.00;;;;;;;18.19;40.75;100158.72;5043411;28;20341;-74
2021/09/22 09:03:34;;;;;;;12.15;7.03;;;;;;;18.08;40.29;100149.41;5043976;28;20072;-73
2021/09/22 09:06:25;;;;;;;8.02;5.80;;;;;;;18.17;39.62;100158.09;5043437;28;20029;-74
2021/09/22 09:08:57;;;;;;;11.68;5.50;;;;;;;18.29;39.13;100153.78;5043033;28;20036;-73
2021/09/22 09:11:38;;;;;;;11.65;5.47;;;;;;;18.20;38.62;100152.31;5024962;28;20101;-74
2021/09/22 09:14:06;;;;;;;7.28;5.18;;;;;;;18.05;38.19;100146.28;5041464;28;20041;-73
2021/09/22 09:16:37;;;;;;;15.18;5.57;;;;;;;18.21;38.15;100159.34;5042041;28;20072;-73
2021/09/22 09:19:11;;;;;;;10.38;6.32;;;;;;;18.31;38.48;100142.88;5042682;28;20056;-74
2021/09/22 09:22:03;;;;;;;11.30;6.03;;;;;;;18.33;38.47;100135.44;5042662;28;20206;-74
2021/09/22 09:24:38;;;;;;;7.25;5.05;;;;;;;18.36;37.64;100154.63;5042365;28;20065;-74
2021/09/22 09:27:17;;;;;;;9.07;4.80;;;;;;;18.17;37.88;100150.03;5042750;28;20055;-74
2021/09/22 09:29:42;;;;;;;9.27;4.63;;;;;;;18.26;37.90;100151.50;5042410;28;20104;-73
2021/09/22 09:32:10;;;;;;;9.20;5.15;;;;;;;18.15;37.04;100147.56;5041976;28;20036;-74
2021/09/22 09:34:35;;;;;;;7.57;5.07;;;;;;;18.08;37.54;100137.84;5042273;28;20037;-73
2021/09/22 09:37:01;;;;;;;7.40;5.22;;;;;;;18.19;37.24;100140.78;5041806;28;20060;-74
2021/09/22 09:39:29;;;;;;;8.85;5.07;;;;;;;18.29;36.73;100139.56;5042296;28;20029;-74
2021/09/22 09:41:57;;;;;;;7.35;4.68;;;;;;;18.27;37.00;100142.44;5042112;28;20234;-74
2021/09/22 09:44:31;;;;;;;6.82;4.35;;;;;;;18.32;36.73;100144.53;5042180;28;20096;-74
2021/09/22 09:47:10;;;;;;;8.77;5.10;;;;;;;18.37;36.63;100124.13;5041325;28;20095;-73
2021/09/22 09:49:37;;;;;;;7.43;4.75;;;;;;;18.31;36.04;100126.78;5042178;28;20189;-74
2021/09/22 09:52:04;;;;;;;7.72;4.38;;;;;;;18.36;36.22;100124.31;5024287;28;20196;-73
2021/09/22 09:54:32;;;;;;;10.55;5.07;;;;;;;18.45;35.27;100129.28;5042183;28;20206;-74
2021/09/22 09:57:11;;;;;;;10.93;4.75;;;;;;;18.42;35.67;100132.38;5023734;28;20080;-74
2021/09/22 09:59:51;;;;;;;10.45;5.00;;;;;;;18.41;36.02;100133.41;5042101;28;20033;-74
2021/09/22 10:02:28;;;;;;;10.20;4.95;;;;;;;18.26;35.50;100130.06;5041579;28;20342;-73
2021/09/22 10:04:53;;;;;;;11.50;5.00;;;;;;;18.31;36.08;100124.09;5041785;28;20039;-74
2021/09/22 10:07:19;;;;;;;7.47;4.53;;;;;;;18.36;35.92;100125.16;5041466;28;20037;-73
2021/09/22 10:09:45;;;;;;;10.07;4.78;;;;;;;18.41;36.11;100130.72;5024061;28;20034;-74
2021/09/22 10:12:13;;;;;;;9.68;4.82;;;;;;;18.58;36.62;100128.47;5041419;28;20040;-73
2021/09/22 10:14:40;;;;;;;10.85;5.20;;;;;;;18.35;35.51;100128.03;5040627;28;20021;-74
2021/09/22 10:17:06;;;;;;;8.65;5.35;;;;;;;18.43;36.32;100127.84;5041490;28;20056;-74
2021/09/22 10:19:33;;;;;;;11.48;5.72;;;;;;;18.46;36.06;100130.13;5041389;28;20033;-74
2021/09/22 10:21:59;;;;;;;9.73;5.47;;;;;;;18.34;36.23;100121.84;5041693;28;20040;-73
2021/09/22 10:24:25;;;;;;;10.15;5.35;;;;;;;18.45;36.12;100118.56;5041278;28;20033;-74
2021/09/22 10:26:50;;;;;;;9.07;5.43;;;;;;;18.44;35.96;100111.53;5041325;28;20229;-73
2021/09/22 10:29:19;;;;;;;8.60;5.40;;;;;;;18.50;36.26;100107.22;5041244;28;20330;-73
2021/09/22 10:31:44;;;;;;;15.45;6.00;;;;;;;18.75;35.68;100105.66;5041184;28;20044;-74
2021/09/22 10:34:43;;;;;;;15.15;5.70;;;;;;;18.89;35.84;100092.22;5041277;28;20025;-74
2021/09/22 10:37:30;;;;;;;7.32;4.95;;;;;;;18.92;35.44;100102.56;5039500;28;20045;-74
2021/09/22 10:39:55;;;;;;;11.73;5.55;;;;;;;18.94;35.51;100105.84;5023836;28;20056;-73
2021/09/22 10:42:31;;;;;;;7.93;5.25;;;;;;;18.99;35.56;100098.81;5040424;28;20045;-73
2021/09/22 10:45:20;;;;;;;9.38;5.03;;;;;;;19.01;35.47;100101.31;5040908;28;20330;-73
2021/09/22 10:47:47;;;;;;;7.82;5.38;;;;;;;19.01;35.26;100094.06;5040609;28;20125;-74
2021/09/22 10:50:42;;;;;;;12.25;5.50;;;;;;;18.72;35.62;100110.56;5043136;28;20341;-73
2021/09/22 10:53:32;;;;;;;13.57;5.63;;;;;;;18.61;36.04;100105.78;5031742;28;20091;-73
2021/09/22 10:56:09;;;;;;;10.32;5.38;;;;;;;18.64;36.13;100102.72;5040951;28;20778;-73
2021/09/22 10:58:40;;;;;;;7.28;5.30;;;;;;;18.64;36.32;100098.19;5041051;28;20064;-73
2021/09/22 11:01:06;;;;;;;8.48;5.32;;;;;;;18.62;36.57;100096.75;5040977;28;20030;-74
2021/09/22 11:03:50;;;;;;;9.00;5.50;;;;;;;18.52;36.36;100094.44;5040810;28;20372;-73
2021/09/22 11:06:44;;;;;;;8.93;6.43;;;;;;;18.59;36.39;100089.06;5040481;28;20033;-74
2021/09/22 11:09:12;;;;;;;8.50;6.22;;;;;;;18.56;36.33;100086.81;5030311;28;20153;-74
2021/09/22 11:11:56;;;;;;;10.63;6.35;;;;;;;18.50;36.36;100070.50;5023115;28;20026;-74
2021/09/22 11:14:30;;;;;;;13.60;6.53;;;;;;;18.54;36.54;100080.81;5040999;28;20087;-74